Flight Track Log - Related Links

Times and Time Zones

All times are in EDT time to prevent confusion due to time zone crossing. See the CTL13 flight status page for this flight to view local times or setup timezone preferences in your user account.

Time Position Orientation Groundspeed Altitude Reporting Facility
EDT Latitude Longitude Course Direction KTS MPH feet Rate Location/Type
Wed 06:27:58 PM 41.5106 -81.6950 320° Northwest 119 137 900  Level Cleveland Center
Wed 06:29:23 PM 41.5456 -81.7344 320° Northwest 139 160 2,000 662 Climbing Cleveland Center
Wed 06:30:23 PM 41.5764 -81.7711 318° Northwest 158 182 2,500 1,091 Climbing Cleveland Center
Wed 06:31:24 PM 41.5864 -81.8103 289° West 87 100 4,200 1,478 Climbing Cleveland Center
Wed 06:32:37 PM 41.6028 -81.8550 296° West 107 123 5,800 898 Climbing Cleveland Center
Wed 06:33:31 PM 41.6106 -81.8967 284° West 141 162 6,100 175 Climbing Cleveland Center
Wed 06:34:20 PM 41.6058 -81.9439 262° West 163 188 6,100 621 Level Cleveland Center
Wed 06:35:27 PM 41.5886 -81.9964 246° West 124 143 7,300 945 Climbing Cleveland Center
Wed 06:36:27 PM 41.5714 -82.0292 235° Southwest 105 121 8,100 417 Climbing Cleveland Center
Wed 06:37:22 PM 41.5564 -82.0678 243° Southwest 147 169 8,100  Level Cleveland Center
Wed 06:38:28 PM 41.5328 -82.1197 239° Southwest 142 163 8,100 70 Level Cleveland Center
Wed 06:40:00 PM 41.5057 -82.1910 243° Southwest  Level Estimated
Wed 06:47:00 PM 41.3815 -82.5155 243° Southwest  Level Estimated
Wed 06:47:26 PM 41.3753 -82.4786 243° Southwest 157 181 8,800  Level Cleveland Center
Wed 06:48:00 PM 41.3637 -82.5618 243° Southwest  Level Estimated
Wed 06:48:26 PM 41.3622 -82.5086 240° Southwest 115 132 9,500  Level Cleveland Center
Wed 06:49:00 PM 41.3458 -82.6080 243° Southwest  Level Estimated
Wed 06:49:26 PM 41.3492 -82.5414 242° Southwest 101 116 10,000  Level Cleveland Center
Wed 06:50:00 PM 41.3280 -82.6543 243° Southwest  Level Estimated
Wed 06:50:26 PM 41.3317 -82.5769 237° Southwest 101 116 10,000  Level Cleveland Center
Wed 06:51:00 PM 41.3112 -82.6976 243° Southwest  Level Estimated
Wed 06:51:26 PM 41.3144 -82.6178 241° Southwest 106 122 10,100  Level Cleveland Center
Wed 06:52:26 PM 41.2992 -82.6533 240° Southwest 111 128 10,000 -50 Descending Cleveland Center
Wed 06:53:26 PM 41.2839 -82.6858 238° Southwest 111 128 10,000  Level Cleveland Center
Wed 06:54:26 PM 41.2686 -82.7242 242° Southwest 111 128 10,000  Level Cleveland Center
Wed 06:55:26 PM 41.2514 -82.7594 237° Southwest 116 133 10,000  Level Cleveland Center
Wed 06:56:26 PM 41.2361 -82.7975 242° Southwest 116 133 10,000  Level Cleveland Center
Wed 06:57:26 PM 41.2167 -82.8328 234° Southwest 116 133 10,000  Level Cleveland Center
Wed 06:58:26 PM 41.2033 -82.8711 245° Southwest 116 133 10,000  Level Cleveland Center
Wed 06:59:26 PM 41.1858 -82.9092 239° Southwest 116 133 10,000  Level Cleveland Center
Wed 07:00:26 PM 41.1683 -82.9469 238° Southwest 122 140 10,000  Level Cleveland Center
Wed 07:01:26 PM 41.1531 -82.9797 238° Southwest 122 140 10,000 -200 Level Cleveland Center
Wed 07:02:26 PM 41.1356 -83.0203 240° Southwest 122 140 9,600 -500 Descending Cleveland Center
Wed 07:03:26 PM 41.1178 -83.0692 244° Southwest 140 161 9,000 -700 Descending Cleveland Center
Wed 07:04:26 PM 41.0958 -83.1181 239° Southwest 145 167 8,200 -500 Descending Cleveland Center
Wed 07:05:26 PM 41.0675 -83.1719 235° Southwest 159 183 8,000 -100 Descending Cleveland Center
Wed 07:06:26 PM 41.0456 -83.2208 239° Southwest 164 189 8,000 50 Level Cleveland Center
Wed 07:07:26 PM 41.0256 -83.2722 243° Southwest 164 189 8,100 50 Climbing Cleveland Center
Wed 07:08:26 PM 41.0036 -83.3208 239° Southwest 159 183 8,100 -33 Level Cleveland Center
Wed 07:10:30 PM 40.9622 -83.4094 238° Southwest 151 174 8,000  Descending Indianapolis Center
Wed 07:11:32 PM 40.9408 -83.4589 240° Southwest 153 176 8,100 48 Climbing Indianapolis Center
Wed 07:12:34 PM 40.9186 -83.5100 240° Southwest 149 171 8,100 -48 Level Indianapolis Center
Wed 07:13:36 PM 40.8942 -83.5564 235° Southwest 152 175 8,000  Descending Indianapolis Center
Wed 07:14:38 PM 40.8753 -83.6053 243° Southwest 150 173 8,100  Climbing Indianapolis Center
Wed 07:15:39 PM 40.8542 -83.6519 239° Southwest 148 170 8,000 -49 Descending Indianapolis Center
Wed 07:16:41 PM 40.8303 -83.7100 241° Southwest 152 175 8,000  Level Indianapolis Center
Wed 07:17:43 PM 40.8067 -83.7561 236° Southwest 151 174 8,000  Level Indianapolis Center
Wed 07:18:45 PM 40.7847 -83.8042 239° Southwest 151 174 8,000  Level Indianapolis Center
Wed 07:19:46 PM 40.7614 -83.8511 237° Southwest 152 175 8,000  Level Indianapolis Center
Wed 07:20:48 PM 40.7419 -83.9000 242° Southwest 149 171 8,000  Level Indianapolis Center
Wed 07:21:50 PM 40.7181 -83.9469 236° Southwest 152 175 8,000  Level Indianapolis Center
Wed 07:22:51 PM 40.6947 -83.9933 236° Southwest 151 174 8,000  Level Indianapolis Center
Wed 07:23:53 PM 40.6789 -84.0439 248° West 149 171 8,000  Level Indianapolis Center
Wed 07:24:43 PM 40.6603 -84.0939 244° Southwest 145 167 8,000  Level Indianapolis Center
Wed 07:25:44 PM 40.6439 -84.1442 247° West 149 171 8,000  Level Indianapolis Center
Wed 07:26:44 PM 40.6256 -84.1911 243° Southwest 148 170 8,000  Level Indianapolis Center
Wed 07:27:39 PM 40.6097 -84.2358 245° Southwest 146 168 8,000 -79 Level Indianapolis Center
Wed 07:28:00 PM 40.6058 -84.2500 250° West 147 169 7,900  Descending Indianapolis Center
Wed 07:28:39 PM 40.5931 -84.2858 245° Southwest 148 170 8,000  Climbing Indianapolis Center
Wed 07:29:01 PM 40.5883 -84.2983 244° Southwest 147 169 7,900 -71 Descending Indianapolis Center
Wed 07:30:03 PM 40.5694 -84.3497 244° Southwest 150 173 7,900 60 Level Indianapolis Center
Wed 07:30:41 PM 40.5561 -84.3822 242° Southwest 149 171 8,000  Climbing Indianapolis Center
Wed 07:31:04 PM 40.5517 -84.3983 250° West 149 171 7,900  Descending Indianapolis Center
Wed 07:31:41 PM 40.5394 -84.4322 245° Southwest 150 173 8,000 97 Climbing Indianapolis Center
Wed 07:32:06 PM 40.5344 -84.4486 248° West 149 171 8,000  Level Indianapolis Center
Wed 07:32:42 PM 40.5231 -84.4822 246° West 148 170 8,000 -97 Level Indianapolis Center
Wed 07:33:08 PM 40.5169 -84.4983 243° Southwest 149 171 7,900  Descending Indianapolis Center
Wed 07:33:43 PM 40.5042 -84.5344 245° Southwest 150 173 8,000 98 Climbing Indianapolis Center
Wed 07:34:09 PM 40.4983 -84.5475 240° Southwest 150 173 8,000  Level Indianapolis Center
Wed 07:34:43 PM 40.4853 -84.5842 245° Southwest 148 170 8,000  Level Indianapolis Center
Wed 07:35:11 PM 40.4742 -84.6025 231° Southwest 149 171 8,000  Level Indianapolis Center
Wed 07:35:38 PM 40.4631 -84.6250 237° Southwest 153 176 8,000  Level Indianapolis Center
Wed 07:36:13 PM 40.4514 -84.6494 238° Southwest 151 174 8,000  Level Indianapolis Center
Wed 07:36:45 PM 40.4361 -84.6733 230° Southwest 153 176 8,000  Level Indianapolis Center
Wed 07:37:15 PM 40.4228 -84.6928 228° Southwest 153 176 8,000  Level Indianapolis Center
Wed 07:37:39 PM 40.4081 -84.7103 222° Southwest 155 178 8,000 -98 Level Indianapolis Center
Wed 07:38:16 PM 40.3936 -84.7339 231° Southwest 153 176 7,900  Descending Indianapolis Center
Wed 07:38:40 PM 40.3792 -84.7531 225° Southwest 152 175 8,000 97 Climbing Indianapolis Center
Wed 07:39:18 PM 40.3625 -84.7742 224° Southwest 155 178 8,000  Level Indianapolis Center
Wed 07:39:41 PM 40.3508 -84.7928 231° Southwest 154 177 8,000  Level Indianapolis Center
Wed 07:40:20 PM 40.3333 -84.8144 223° Southwest 153 176 8,000  Level Indianapolis Center
Wed 07:40:41 PM 40.3203 -84.8322 226° Southwest 155 178 8,000  Level Indianapolis Center
Wed 07:41:21 PM 40.3028 -84.8558 226° Southwest 154 177 8,000  Level Indianapolis Center
Wed 07:41:42 PM 40.2897 -84.8717 223° Southwest 155 178 8,000  Level Indianapolis Center
Wed 07:42:23 PM 40.2725 -84.8972 229° Southwest 156 180 8,000  Level Indianapolis Center
Wed 07:42:42 PM 40.2583 -84.9192 230° Southwest 158 182 8,000  Level Indianapolis Center
Wed 07:43:25 PM 40.2392 -84.9414 222° Southwest 156 180 8,000  Level Indianapolis Center
Wed 07:43:43 PM 40.2278 -84.9586 229° Southwest 156 180 8,000  Level Indianapolis Center
Wed 07:44:26 PM 40.2097 -84.9819 225° Southwest 155 178 8,000 98 Level Indianapolis Center
Wed 07:44:44 PM 40.1972 -84.9978 224° Southwest 155 178 8,100  Climbing Indianapolis Center
Wed 07:45:28 PM 40.1786 -85.0233 226° Southwest 157 181 8,000 -100 Descending Indianapolis Center
Wed 07:45:44 PM 40.1683 -85.0403 232° Southwest 158 182 8,000  Level Indianapolis Center
Wed 07:46:30 PM 40.1486 -85.0661 225° Southwest 158 182 8,000  Level Indianapolis Center
Wed 07:46:45 PM 40.1375 -85.0822 228° Southwest 159 183 8,000  Level Indianapolis Center
Wed 07:47:31 PM 40.1164 -85.1064 221° Southwest 158 182 8,000 98 Level Indianapolis Center
Wed 07:47:46 PM 40.1067 -85.1242 234° Southwest 159 183 8,100  Climbing Indianapolis Center
Wed 07:48:33 PM 40.0967 -85.1644 252° West 152 175 8,000 -55 Descending Indianapolis Center
Wed 07:49:35 PM 40.0856 -85.2169 255° West 148 170 8,000  Level Indianapolis Center
Wed 07:50:36 PM 40.0733 -85.2692 253° West 149 171 8,000 -146 Level Indianapolis Center
Wed 07:51:38 PM 40.0611 -85.3208 253° West 148 170 7,700 -532 Descending Indianapolis Center
Wed 07:52:40 PM 40.0464 -85.3792 252° West 164 189 6,900 -878 Descending Indianapolis Center
Wed 07:53:41 PM 40.0322 -85.4394 253° West 170 196 5,900 -927 Descending Indianapolis Center
Wed 07:54:43 PM 40.0178 -85.4994 253° West 172 198 5,000 -435 Descending Indianapolis Center
Wed 07:55:45 PM 40.0056 -85.5511 253° West 161 185 5,000  Level Indianapolis Center
Wed 07:56:46 PM 39.9917 -85.6092 253° West 148 170 5,000  Level Indianapolis Center
Wed 07:57:48 PM 39.9800 -85.6594 253° West 145 167 5,000  Level Indianapolis Center
Wed 07:58:50 PM 39.9694 -85.7103 255° West 145 167 5,000 -244 Level Indianapolis Center
Wed 07:59:51 PM 39.9569 -85.7639 253° West 148 170 4,500 -634 Descending Indianapolis Center
Wed 08:00:53 PM 39.9433 -85.8222 253° West 158 182 3,700 -726 Descending Indianapolis Center
Wed 08:01:55 PM 39.9289 -85.8794 252° West 164 189 3,000 -339 Descending Indianapolis Center
Wed 08:02:57 PM 39.9211 -85.9339 259° West 159 183 3,000  Level Indianapolis Center
Wed 08:03:58 PM 39.9208 -85.9861 270° West 149 171 3,000  Level Indianapolis Center
Wed 08:05:00 PM 39.9183 -86.0472 267° West 146 168 3,000 -244 Level Indianapolis Center
Wed 08:06:01 PM 39.9144 -86.0969 264° West 141 162 2,500 -293 Descending Indianapolis Center
Wed 08:07:03 PM 39.8986 -86.1428 246° West 138 159 2,400 -97 Descending Indianapolis Center
Wed 08:08:05 PM 39.8831 -86.1844 244° Southwest 137 158 2,300 -97 Descending Indianapolis Center
Wed 08:10:00 PM 39.8452 -86.2676 239° Southwest  Level FlightAware Approximate
Wed 08:17:00 PM 39.8167 -86.2833 90° East  Level FlightAware Approximate
Wed 08:18:00 PM 39.8308 -86.2944 90° East  Level Estimated

Login

Don't have an account? Register now (free) for customized features, flight alerts, and more!